sensor_id;sensor_type;location;lat;lon;timestamp;P1;durP1;ratioP1;P2;durP2;ratioP2
69623;SDS011;56843;52.020;5.670;2023-04-08T00:01:03;13.40;;;5.87;;
69623;SDS011;56843;52.020;5.670;2023-04-08T00:02:33;12.10;;;5.33;;
69623;SDS011;56843;52.020;5.670;2023-04-08T00:04:04;14.23;;;6.95;;
69623;SDS011;56843;52.020;5.670;2023-04-08T00:05:34;14.83;;;6.60;;
69623;SDS011;56843;52.020;5.670;2023-04-08T00:07:05;14.20;;;5.70;;
69623;SDS011;56843;52.020;5.670;2023-04-08T00:08:36;15.68;;;6.47;;
69623;SDS011;56843;52.020;5.670;2023-04-08T00:10:07;14.07;;;6.57;;
69623;SDS011;56843;52.020;5.670;2023-04-08T00:11:37;13.20;;;5.90;;
69623;SDS011;56843;52.020;5.670;2023-04-08T00:13:08;22.17;;;5.97;;
69623;SDS011;56843;52.020;5.670;2023-04-08T00:14:38;11.53;;;5.43;;
69623;SDS011;56843;52.020;5.670;2023-04-08T00:16:10;15.25;;;5.95;;
69623;SDS011;56843;52.020;5.670;2023-04-08T00:17:41;13.53;;;6.20;;
69623;SDS011;56843;52.020;5.670;2023-04-08T00:19:11;14.73;;;5.87;;
69623;SDS011;56843;52.020;5.670;2023-04-08T00:20:42;10.50;;;5.37;;
69623;SDS011;56843;52.020;5.670;2023-04-08T00:22:13;12.07;;;5.95;;
69623;SDS011;56843;52.020;5.670;2023-04-08T00:23:43;13.33;;;5.73;;
69623;SDS011;56843;52.020;5.670;2023-04-08T00:25:14;10.48;;;4.68;;
69623;SDS011;56843;52.020;5.670;2023-04-08T00:26:45;12.00;;;5.27;;
69623;SDS011;56843;52.020;5.670;2023-04-08T00:28:15;11.80;;;5.30;;
69623;SDS011;56843;52.020;5.670;2023-04-08T00:29:46;10.93;;;4.90;;
69623;SDS011;56843;52.020;5.670;2023-04-08T00:31:16;12.90;;;5.13;;
69623;SDS011;56843;52.020;5.670;2023-04-08T00:32:47;10.73;;;4.97;;
69623;SDS011;56843;52.020;5.670;2023-04-08T00:34:17;11.83;;;4.73;;
69623;SDS011;56843;52.020;5.670;2023-04-08T00:35:48;10.13;;;5.13;;
69623;SDS011;56843;52.020;5.670;2023-04-08T00:37:18;9.18;;;4.22;;
69623;SDS011;56843;52.020;5.670;2023-04-08T00:38:50;10.53;;;4.87;;
69623;SDS011;56843;52.020;5.670;2023-04-08T00:40:20;10.17;;;4.97;;
69623;SDS011;56843;52.020;5.670;2023-04-08T00:41:51;9.27;;;4.50;;
69623;SDS011;56843;52.020;5.670;2023-04-08T00:43:21;10.38;;;4.47;;
69623;SDS011;56843;52.020;5.670;2023-04-08T00:44:52;9.53;;;4.60;;
69623;SDS011;56843;52.020;5.670;2023-04-08T00:46:22;10.68;;;4.57;;
69623;SDS011;56843;52.020;5.670;2023-04-08T00:47:53;11.83;;;4.27;;
69623;SDS011;56843;52.020;5.670;2023-04-08T00:49:24;10.90;;;5.00;;
69623;SDS011;56843;52.020;5.670;2023-04-08T00:50:55;10.87;;;4.97;;
69623;SDS011;56843;52.020;5.670;2023-04-08T00:52:26;10.30;;;4.82;;
69623;SDS011;56843;52.020;5.670;2023-04-08T00:53:56;11.73;;;5.22;;
69623;SDS011;56843;52.020;5.670;2023-04-08T00:55:27;10.67;;;4.27;;
69623;SDS011;56843;52.020;5.670;2023-04-08T00:56:58;12.07;;;5.37;;
69623;SDS011;56843;52.020;5.670;2023-04-08T00:58:31;11.52;;;4.47;;
69623;SDS011;56843;52.020;5.670;2023-04-08T01:00:03;9.02;;;4.55;;
69623;SDS011;56843;52.020;5.670;2023-04-08T01:05:29;9.80;;;4.78;;
69623;SDS011;56843;52.020;5.670;2023-04-08T01:07:14;10.57;;;5.20;;
69623;SDS011;56843;52.020;5.670;2023-04-08T01:08:47;11.60;;;5.47;;
69623;SDS011;56843;52.020;5.670;2023-04-08T01:10:30;13.43;;;5.27;;
69623;SDS011;56843;52.020;5.670;2023-04-08T01:12:04;9.37;;;4.67;;
69623;SDS011;56843;52.020;5.670;2023-04-08T01:13:38;9.00;;;4.28;;
69623;SDS011;56843;52.020;5.670;2023-04-08T01:15:12;12.25;;;4.72;;
69623;SDS011;56843;52.020;5.670;2023-04-08T01:16:43;9.82;;;4.82;;
69623;SDS011;56843;52.020;5.670;2023-04-08T01:18:15;10.93;;;4.50;;
69623;SDS011;56843;52.020;5.670;2023-04-08T01:19:46;12.55;;;4.18;;
69623;SDS011;56843;52.020;5.670;2023-04-08T01:21:19;8.98;;;4.40;;
69623;SDS011;56843;52.020;5.670;2023-04-08T01:22:57;10.75;;;4.10;;
69623;SDS011;56843;52.020;5.670;2023-04-08T01:24:30;10.32;;;4.45;;
69623;SDS011;56843;52.020;5.670;2023-04-08T01:26:05;9.50;;;4.23;;
69623;SDS011;56843;52.020;5.670;2023-04-08T01:27:36;13.63;;;4.77;;
69623;SDS011;56843;52.020;5.670;2023-04-08T01:29:07;12.35;;;4.75;;
69623;SDS011;56843;52.020;5.670;2023-04-08T01:30:41;8.98;;;4.07;;
69623;SDS011;56843;52.020;5.670;2023-04-08T01:32:12;11.70;;;5.03;;
69623;SDS011;56843;52.020;5.670;2023-04-08T01:33:45;10.93;;;5.00;;
69623;SDS011;56843;52.020;5.670;2023-04-08T01:35:18;23.23;;;4.37;;
69623;SDS011;56843;52.020;5.670;2023-04-08T01:36:48;11.93;;;3.35;;
69623;SDS011;56843;52.020;5.670;2023-04-08T01:38:20;17.55;;;4.22;;
69623;SDS011;56843;52.020;5.670;2023-04-08T01:39:54;14.27;;;3.38;;
69623;SDS011;56843;52.020;5.670;2023-04-08T01:41:26;10.40;;;2.95;;
69623;SDS011;56843;52.020;5.670;2023-04-08T01:42:58;20.83;;;3.60;;
69623;SDS011;56843;52.020;5.670;2023-04-08T01:44:30;9.33;;;3.03;;
69623;SDS011;56843;52.020;5.670;2023-04-08T01:46:02;9.90;;;3.25;;
69623;SDS011;56843;52.020;5.670;2023-04-08T01:47:34;9.13;;;2.55;;
69623;SDS011;56843;52.020;5.670;2023-04-08T01:49:07;10.48;;;2.72;;
69623;SDS011;56843;52.020;5.670;2023-04-08T01:50:42;7.35;;;2.65;;
69623;SDS011;56843;52.020;5.670;2023-04-08T01:52:17;6.07;;;2.28;;
69623;SDS011;56843;52.020;5.670;2023-04-08T01:53:49;6.53;;;2.42;;
69623;SDS011;56843;52.020;5.670;2023-04-08T01:55:20;14.30;;;2.73;;
69623;SDS011;56843;52.020;5.670;2023-04-08T01:56:51;6.10;;;2.17;;
69623;SDS011;56843;52.020;5.670;2023-04-08T01:58:25;10.00;;;2.60;;
69623;SDS011;56843;52.020;5.670;2023-04-08T02:00:05;10.60;;;2.55;;
69623;SDS011;56843;52.020;5.670;2023-04-08T02:01:50;6.80;;;1.63;;
69623;SDS011;56843;52.020;5.670;2023-04-08T02:03:22;6.05;;;2.13;;
69623;SDS011;56843;52.020;5.670;2023-04-08T02:04:54;7.28;;;2.30;;
69623;SDS011;56843;52.020;5.670;2023-04-08T02:06:25;4.60;;;1.70;;
69623;SDS011;56843;52.020;5.670;2023-04-08T02:07:57;8.15;;;2.28;;
69623;SDS011;56843;52.020;5.670;2023-04-08T02:09:27;7.30;;;2.47;;
69623;SDS011;56843;52.020;5.670;2023-04-08T02:10:58;6.60;;;2.20;;
69623;SDS011;56843;52.020;5.670;2023-04-08T02:12:29;5.70;;;2.10;;
69623;SDS011;56843;52.020;5.670;2023-04-08T02:14:00;9.13;;;2.13;;
69623;SDS011;56843;52.020;5.670;2023-04-08T02:15:34;4.40;;;1.42;;
69623;SDS011;56843;52.020;5.670;2023-04-08T02:17:13;6.32;;;1.58;;
69623;SDS011;56843;52.020;5.670;2023-04-08T02:18:54;8.65;;;1.75;;
69623;SDS011;56843;52.020;5.670;2023-04-08T02:20:34;5.37;;;1.80;;
69623;SDS011;56843;52.020;5.670;2023-04-08T02:22:11;4.87;;;1.90;;
69623;SDS011;56843;52.020;5.670;2023-04-08T02:24:03;6.20;;;1.60;;
69623;SDS011;56843;52.020;5.670;2023-04-08T02:25:37;6.85;;;1.67;;
69623;SDS011;56843;52.020;5.670;2023-04-08T02:27:09;5.38;;;1.80;;
69623;SDS011;56843;52.020;5.670;2023-04-08T02:28:40;3.95;;;1.55;;
69623;SDS011;56843;52.020;5.670;2023-04-08T02:30:12;8.55;;;2.30;;
69623;SDS011;56843;52.020;5.670;2023-04-08T02:31:43;5.28;;;1.73;;
69623;SDS011;56843;52.020;5.670;2023-04-08T02:33:19;5.60;;;1.80;;
69623;SDS011;56843;52.020;5.670;2023-04-08T02:34:51;5.67;;;1.77;;
69623;SDS011;56843;52.020;5.670;2023-04-08T02:36:23;4.35;;;1.42;;
69623;SDS011;56843;52.020;5.670;2023-04-08T02:37:55;7.60;;;1.80;;
69623;SDS011;56843;52.020;5.670;2023-04-08T02:39:30;4.57;;;1.60;;
69623;SDS011;56843;52.020;5.670;2023-04-08T02:41:01;4.00;;;1.50;;
69623;SDS011;56843;52.020;5.670;2023-04-08T02:42:32;4.45;;;1.52;;
69623;SDS011;56843;52.020;5.670;2023-04-08T02:44:03;4.47;;;1.63;;
69623;SDS011;56843;52.020;5.670;2023-04-08T02:45:40;3.40;;;1.27;;
69623;SDS011;56843;52.020;5.670;2023-04-08T02:47:12;8.23;;;1.40;;
69623;SDS011;56843;52.020;5.670;2023-04-08T02:48:43;3.65;;;1.10;;
69623;SDS011;56843;52.020;5.670;2023-04-08T02:50:13;4.47;;;1.83;;
69623;SDS011;56843;52.020;5.670;2023-04-08T02:51:44;5.80;;;1.70;;
69623;SDS011;56843;52.020;5.670;2023-04-08T02:53:14;3.53;;;1.20;;
69623;SDS011;56843;52.020;5.670;2023-04-08T02:54:45;3.90;;;1.60;;
69623;SDS011;56843;52.020;5.670;2023-04-08T02:56:15;3.63;;;1.50;;
69623;SDS011;56843;52.020;5.670;2023-04-08T02:57:46;4.75;;;1.77;;
69623;SDS011;56843;52.020;5.670;2023-04-08T02:59:17;4.47;;;1.60;;
69623;SDS011;56843;52.020;5.670;2023-04-08T03:00:48;4.17;;;1.40;;
69623;SDS011;56843;52.020;5.670;2023-04-08T03:02:18;3.43;;;1.50;;
69623;SDS011;56843;52.020;5.670;2023-04-08T03:03:48;3.65;;;1.23;;
69623;SDS011;56843;52.020;5.670;2023-04-08T03:05:19;6.97;;;1.93;;
69623;SDS011;56843;52.020;5.670;2023-04-08T03:06:50;4.35;;;1.50;;
69623;SDS011;56843;52.020;5.670;2023-04-08T03:08:21;4.68;;;1.60;;
69623;SDS011;56843;52.020;5.670;2023-04-08T03:09:53;3.93;;;1.50;;
69623;SDS011;56843;52.020;5.670;2023-04-08T03:11:24;4.93;;;1.70;;
69623;SDS011;56843;52.020;5.670;2023-04-08T03:12:55;4.13;;;1.63;;
69623;SDS011;56843;52.020;5.670;2023-04-08T03:14:25;4.07;;;1.70;;
69623;SDS011;56843;52.020;5.670;2023-04-08T03:15:56;8.43;;;1.80;;
69623;SDS011;56843;52.020;5.670;2023-04-08T03:17:26;4.30;;;1.80;;
69623;SDS011;56843;52.020;5.670;2023-04-08T03:18:57;6.63;;;1.77;;
69623;SDS011;56843;52.020;5.670;2023-04-08T03:20:27;4.03;;;1.70;;
69623;SDS011;56843;52.020;5.670;2023-04-08T03:21:58;3.53;;;1.37;;
69623;SDS011;56843;52.020;5.670;2023-04-08T03:23:28;4.30;;;1.77;;
69623;SDS011;56843;52.020;5.670;2023-04-08T03:24:59;3.22;;;1.50;;
69623;SDS011;56843;52.020;5.670;2023-04-08T03:26:29;4.10;;;1.37;;
69623;SDS011;56843;52.020;5.670;2023-04-08T03:28:00;3.73;;;1.40;;
69623;SDS011;56843;52.020;5.670;2023-04-08T03:29:30;4.68;;;1.60;;
69623;SDS011;56843;52.020;5.670;2023-04-08T03:31:04;5.07;;;2.23;;
69623;SDS011;56843;52.020;5.670;2023-04-08T03:32:34;3.80;;;1.58;;
69623;SDS011;56843;52.020;5.670;2023-04-08T03:34:05;4.10;;;1.60;;
69623;SDS011;56843;52.020;5.670;2023-04-08T03:35:36;4.38;;;1.60;;
69623;SDS011;56843;52.020;5.670;2023-04-08T03:37:07;4.40;;;1.83;;
69623;SDS011;56843;52.020;5.670;2023-04-08T03:38:38;4.67;;;1.53;;
69623;SDS011;56843;52.020;5.670;2023-04-08T03:40:08;8.17;;;2.40;;
69623;SDS011;56843;52.020;5.670;2023-04-08T03:41:39;6.63;;;1.63;;
69623;SDS011;56843;52.020;5.670;2023-04-08T03:43:10;5.60;;;1.73;;
69623;SDS011;56843;52.020;5.670;2023-04-08T03:44:41;4.65;;;1.70;;
69623;SDS011;56843;52.020;5.670;2023-04-08T03:46:12;5.03;;;2.03;;
69623;SDS011;56843;52.020;5.670;2023-04-08T03:47:42;4.63;;;1.77;;
69623;SDS011;56843;52.020;5.670;2023-04-08T03:49:12;4.93;;;2.00;;
69623;SDS011;56843;52.020;5.670;2023-04-08T03:50:43;4.50;;;1.63;;
69623;SDS011;56843;52.020;5.670;2023-04-08T03:52:13;4.65;;;1.88;;
69623;SDS011;56843;52.020;5.670;2023-04-08T03:53:44;5.37;;;1.43;;
69623;SDS011;56843;52.020;5.670;2023-04-08T03:55:15;4.22;;;1.50;;
69623;SDS011;56843;52.020;5.670;2023-04-08T03:56:45;4.10;;;1.40;;
69623;SDS011;56843;52.020;5.670;2023-04-08T03:58:16;3.90;;;1.53;;
69623;SDS011;56843;52.020;5.670;2023-04-08T03:59:46;4.75;;;1.40;;
69623;SDS011;56843;52.020;5.670;2023-04-08T04:01:17;4.97;;;1.77;;
69623;SDS011;56843;52.020;5.670;2023-04-08T04:02:47;5.87;;;1.90;;
69623;SDS011;56843;52.020;5.670;2023-04-08T04:04:18;5.20;;;1.35;;
69623;SDS011;56843;52.020;5.670;2023-04-08T04:05:49;5.72;;;1.58;;
69623;SDS011;56843;52.020;5.670;2023-04-08T04:07:19;6.13;;;1.87;;
69623;SDS011;56843;52.020;5.670;2023-04-08T04:08:51;9.13;;;2.15;;
69623;SDS011;56843;52.020;5.670;2023-04-08T04:10:23;6.53;;;1.77;;
69623;SDS011;56843;52.020;5.670;2023-04-08T04:11:53;4.88;;;1.63;;
69623;SDS011;56843;52.020;5.670;2023-04-08T04:13:24;5.97;;;1.70;;
69623;SDS011;56843;52.020;5.670;2023-04-08T04:14:55;6.07;;;1.80;;
69623;SDS011;56843;52.020;5.670;2023-04-08T04:16:25;4.43;;;1.63;;
69623;SDS011;56843;52.020;5.670;2023-04-08T04:17:55;4.40;;;1.60;;
69623;SDS011;56843;52.020;5.670;2023-04-08T04:19:28;6.97;;;1.60;;
69623;SDS011;56843;52.020;5.670;2023-04-08T04:21:03;3.22;;;1.30;;
69623;SDS011;56843;52.020;5.670;2023-04-08T04:22:34;4.47;;;1.55;;
69623;SDS011;56843;52.020;5.670;2023-04-08T04:24:05;4.27;;;1.60;;
69623;SDS011;56843;52.020;5.670;2023-04-08T04:25:35;5.00;;;1.57;;
69623;SDS011;56843;52.020;5.670;2023-04-08T04:27:06;7.13;;;1.40;;
69623;SDS011;56843;52.020;5.670;2023-04-08T04:28:37;4.80;;;1.40;;
69623;SDS011;56843;52.020;5.670;2023-04-08T04:30:07;3.08;;;1.30;;
69623;SDS011;56843;52.020;5.670;2023-04-08T04:31:38;7.50;;;1.67;;
69623;SDS011;56843;52.020;5.670;2023-04-08T04:33:09;3.42;;;1.40;;
69623;SDS011;56843;52.020;5.670;2023-04-08T04:34:40;4.00;;;1.50;;
69623;SDS011;56843;52.020;5.670;2023-04-08T04:36:10;4.57;;;1.65;;
69623;SDS011;56843;52.020;5.670;2023-04-08T04:37:41;4.40;;;1.40;;
69623;SDS011;56843;52.020;5.670;2023-04-08T04:39:11;5.75;;;1.73;;
69623;SDS011;56843;52.020;5.670;2023-04-08T04:40:42;3.80;;;1.30;;
69623;SDS011;56843;52.020;5.670;2023-04-08T04:42:13;2.78;;;1.20;;
69623;SDS011;56843;52.020;5.670;2023-04-08T04:43:43;4.07;;;1.23;;
69623;SDS011;56843;52.020;5.670;2023-04-08T04:45:14;3.13;;;1.30;;
69623;SDS011;56843;52.020;5.670;2023-04-08T04:46:44;4.47;;;1.65;;
69623;SDS011;56843;52.020;5.670;2023-04-08T04:48:15;3.50;;;1.43;;
69623;SDS011;56843;52.020;5.670;2023-04-08T04:49:45;3.47;;;1.57;;
69623;SDS011;56843;52.020;5.670;2023-04-08T04:51:16;3.42;;;1.30;;
69623;SDS011;56843;52.020;5.670;2023-04-08T04:52:47;4.90;;;1.80;;
69623;SDS011;56843;52.020;5.670;2023-04-08T04:54:17;3.92;;;1.58;;
69623;SDS011;56843;52.020;5.670;2023-04-08T04:55:48;4.33;;;1.50;;
69623;SDS011;56843;52.020;5.670;2023-04-08T04:57:19;3.60;;;1.10;;
69623;SDS011;56843;52.020;5.670;2023-04-08T04:58:50;4.37;;;1.63;;
69623;SDS011;56843;52.020;5.670;2023-04-08T05:00:20;6.40;;;1.80;;
69623;SDS011;56843;52.020;5.670;2023-04-08T05:01:51;8.73;;;1.87;;
69623;SDS011;56843;52.020;5.670;2023-04-08T05:03:21;5.80;;;1.40;;
69623;SDS011;56843;52.020;5.670;2023-04-08T05:04:52;5.65;;;1.90;;
69623;SDS011;56843;52.020;5.670;2023-04-08T05:06:24;6.82;;;1.95;;
69623;SDS011;56843;52.020;5.670;2023-04-08T05:07:56;5.05;;;1.60;;
69623;SDS011;56843;52.020;5.670;2023-04-08T05:09:27;6.13;;;1.60;;
69623;SDS011;56843;52.020;5.670;2023-04-08T05:10:58;4.57;;;1.80;;
69623;SDS011;56843;52.020;5.670;2023-04-08T05:12:31;5.70;;;1.90;;
69623;SDS011;56843;52.020;5.670;2023-04-08T05:14:01;4.53;;;1.47;;
69623;SDS011;56843;52.020;5.670;2023-04-08T05:15:32;6.82;;;1.55;;
69623;SDS011;56843;52.020;5.670;2023-04-08T05:17:02;7.27;;;1.40;;
69623;SDS011;56843;52.020;5.670;2023-04-08T05:18:34;3.38;;;1.35;;
69623;SDS011;56843;52.020;5.670;2023-04-08T05:20:05;5.00;;;1.47;;
69623;SDS011;56843;52.020;5.670;2023-04-08T05:21:36;5.05;;;1.58;;
69623;SDS011;56843;52.020;5.670;2023-04-08T05:23:06;4.67;;;1.80;;
69623;SDS011;56843;52.020;5.670;2023-04-08T05:24:37;3.75;;;1.60;;
69623;SDS011;56843;52.020;5.670;2023-04-08T05:26:08;4.10;;;1.60;;
69623;SDS011;56843;52.020;5.670;2023-04-08T05:27:38;6.43;;;1.60;;
69623;SDS011;56843;52.020;5.670;2023-04-08T05:29:09;5.90;;;1.83;;
69623;SDS011;56843;52.020;5.670;2023-04-08T05:30:40;7.43;;;2.13;;
69623;SDS011;56843;52.020;5.670;2023-04-08T05:32:11;8.40;;;1.80;;
69623;SDS011;56843;52.020;5.670;2023-04-08T05:33:41;7.70;;;2.30;;
69623;SDS011;56843;52.020;5.670;2023-04-08T05:35:11;8.20;;;2.10;;
69623;SDS011;56843;52.020;5.670;2023-04-08T05:36:42;8.93;;;2.25;;
69623;SDS011;56843;52.020;5.670;2023-04-08T05:38:13;11.83;;;2.87;;
69623;SDS011;56843;52.020;5.670;2023-04-08T05:39:43;11.35;;;2.13;;
69623;SDS011;56843;52.020;5.670;2023-04-08T05:41:14;13.13;;;3.73;;
69623;SDS011;56843;52.020;5.670;2023-04-08T05:42:44;12.10;;;3.17;;
69623;SDS011;56843;52.020;5.670;2023-04-08T05:44:15;16.40;;;4.03;;
69623;SDS011;56843;52.020;5.670;2023-04-08T05:45:45;10.43;;;3.53;;
69623;SDS011;56843;52.020;5.670;2023-04-08T05:47:16;9.37;;;3.33;;
69623;SDS011;56843;52.020;5.670;2023-04-08T05:48:46;6.57;;;2.53;;
69623;SDS011;56843;52.020;5.670;2023-04-08T05:50:17;12.47;;;3.30;;
69623;SDS011;56843;52.020;5.670;2023-04-08T05:51:47;11.20;;;3.05;;
69623;SDS011;56843;52.020;5.670;2023-04-08T05:53:18;6.33;;;2.70;;
69623;SDS011;56843;52.020;5.670;2023-04-08T05:54:48;6.68;;;2.90;;
69623;SDS011;56843;52.020;5.670;2023-04-08T05:56:19;11.03;;;3.70;;
69623;SDS011;56843;52.020;5.670;2023-04-08T05:57:50;11.15;;;3.40;;
69623;SDS011;56843;52.020;5.670;2023-04-08T05:59:20;12.63;;;3.70;;
69623;SDS011;56843;52.020;5.670;2023-04-08T06:00:50;8.47;;;3.63;;
69623;SDS011;56843;52.020;5.670;2023-04-08T06:02:21;8.73;;;3.65;;
69623;SDS011;56843;52.020;5.670;2023-04-08T06:03:51;6.90;;;3.00;;
69623;SDS011;56843;52.020;5.670;2023-04-08T06:05:24;6.63;;;3.20;;
69623;SDS011;56843;52.020;5.670;2023-04-08T06:06:55;7.33;;;3.33;;
69623;SDS011;56843;52.020;5.670;2023-04-08T06:08:28;7.32;;;3.20;;
69623;SDS011;56843;52.020;5.670;2023-04-08T06:09:59;6.45;;;3.22;;
69623;SDS011;56843;52.020;5.670;2023-04-08T06:11:30;7.33;;;3.37;;
69623;SDS011;56843;52.020;5.670;2023-04-08T06:13:00;7.13;;;3.03;;
69623;SDS011;56843;52.020;5.670;2023-04-08T06:14:31;7.20;;;3.20;;
69623;SDS011;56843;52.020;5.670;2023-04-08T06:16:14;9.60;;;3.40;;
69623;SDS011;56843;52.020;5.670;2023-04-08T06:17:46;6.97;;;2.83;;
69623;SDS011;56843;52.020;5.670;2023-04-08T06:19:16;6.53;;;3.03;;
69623;SDS011;56843;52.020;5.670;2023-04-08T06:20:47;6.73;;;3.10;;
69623;SDS011;56843;52.020;5.670;2023-04-08T06:22:18;7.05;;;2.90;;
69623;SDS011;56843;52.020;5.670;2023-04-08T06:23:48;8.43;;;3.30;;
69623;SDS011;56843;52.020;5.670;2023-04-08T06:25:19;7.30;;;3.03;;
69623;SDS011;56843;52.020;5.670;2023-04-08T06:26:50;6.73;;;3.03;;
69623;SDS011;56843;52.020;5.670;2023-04-08T06:28:22;6.13;;;2.88;;
69623;SDS011;56843;52.020;5.670;2023-04-08T06:29:52;7.20;;;3.28;;
69623;SDS011;56843;52.020;5.670;2023-04-08T06:31:24;7.17;;;3.20;;
69623;SDS011;56843;52.020;5.670;2023-04-08T06:32:54;7.07;;;3.13;;
69623;SDS011;56843;52.020;5.670;2023-04-08T06:34:25;8.67;;;3.27;;
69623;SDS011;56843;52.020;5.670;2023-04-08T06:36:04;7.87;;;3.07;;
69623;SDS011;56843;52.020;5.670;2023-04-08T06:37:36;7.80;;;3.55;;
69623;SDS011;56843;52.020;5.670;2023-04-08T06:39:07;6.97;;;3.30;;
69623;SDS011;56843;52.020;5.670;2023-04-08T06:40:38;6.80;;;2.90;;
69623;SDS011;56843;52.020;5.670;2023-04-08T06:42:09;7.50;;;3.30;;
69623;SDS011;56843;52.020;5.670;2023-04-08T06:44:04;9.30;;;3.63;;
69623;SDS011;56843;52.020;5.670;2023-04-08T06:45:34;8.25;;;3.75;;
69623;SDS011;56843;52.020;5.670;2023-04-08T06:47:05;7.50;;;3.07;;
69623;SDS011;56843;52.020;5.670;2023-04-08T06:48:36;9.38;;;3.15;;
69623;SDS011;56843;52.020;5.670;2023-04-08T06:50:06;9.33;;;3.60;;
69623;SDS011;56843;52.020;5.670;2023-04-08T06:51:37;6.60;;;2.67;;
69623;SDS011;56843;52.020;5.670;2023-04-08T06:53:07;7.07;;;3.47;;
69623;SDS011;56843;52.020;5.670;2023-04-08T06:54:38;9.43;;;3.40;;
69623;SDS011;56843;52.020;5.670;2023-04-08T06:56:08;7.57;;;3.43;;
69623;SDS011;56843;52.020;5.670;2023-04-08T06:57:39;7.20;;;3.53;;
69623;SDS011;56843;52.020;5.670;2023-04-08T06:59:09;7.37;;;3.30;;
69623;SDS011;56843;52.020;5.670;2023-04-08T07:00:40;6.17;;;2.73;;
69623;SDS011;56843;52.020;5.670;2023-04-08T07:02:11;9.70;;;3.55;;
69623;SDS011;56843;52.020;5.670;2023-04-08T07:03:41;7.87;;;2.80;;
69623;SDS011;56843;52.020;5.670;2023-04-08T07:05:12;7.38;;;3.40;;
69623;SDS011;56843;52.020;5.670;2023-04-08T07:06:43;7.80;;;2.87;;
69623;SDS011;56843;52.020;5.670;2023-04-08T07:08:13;8.20;;;3.60;;
69623;SDS011;56843;52.020;5.670;2023-04-08T07:09:44;6.65;;;3.28;;
69623;SDS011;56843;52.020;5.670;2023-04-08T07:11:15;8.70;;;3.80;;
69623;SDS011;56843;52.020;5.670;2023-04-08T07:12:46;7.03;;;3.50;;
69623;SDS011;56843;52.020;5.670;2023-04-08T07:14:16;9.30;;;3.53;;
69623;SDS011;56843;52.020;5.670;2023-04-08T07:15:48;9.20;;;3.47;;
69623;SDS011;56843;52.020;5.670;2023-04-08T07:17:18;8.37;;;4.13;;
69623;SDS011;56843;52.020;5.670;2023-04-08T07:18:49;9.37;;;4.00;;
69623;SDS011;56843;52.020;5.670;2023-04-08T07:20:20;9.00;;;3.53;;
69623;SDS011;56843;52.020;5.670;2023-04-08T07:21:51;9.02;;;3.85;;
69623;SDS011;56843;52.020;5.670;2023-04-08T07:23:22;7.57;;;3.43;;
69623;SDS011;56843;52.020;5.670;2023-04-08T07:24:52;9.20;;;2.63;;
69623;SDS011;56843;52.020;5.670;2023-04-08T07:26:23;8.23;;;2.47;;
69623;SDS011;56843;52.020;5.670;2023-04-08T07:27:54;5.47;;;1.95;;
69623;SDS011;56843;52.020;5.670;2023-04-08T07:29:25;4.80;;;1.90;;
69623;SDS011;56843;52.020;5.670;2023-04-08T07:31:07;5.10;;;2.17;;
69623;SDS011;56843;52.020;5.670;2023-04-08T07:32:45;5.87;;;2.27;;
69623;SDS011;56843;52.020;5.670;2023-04-08T07:34:15;7.28;;;2.20;;
69623;SDS011;56843;52.020;5.670;2023-04-08T07:35:46;7.07;;;2.37;;
69623;SDS011;56843;52.020;5.670;2023-04-08T07:37:16;8.15;;;2.00;;
69623;SDS011;56843;52.020;5.670;2023-04-08T07:38:47;7.77;;;2.47;;
69623;SDS011;56843;52.020;5.670;2023-04-08T07:40:17;5.17;;;2.10;;
69623;SDS011;56843;52.020;5.670;2023-04-08T07:41:48;5.57;;;2.33;;
69623;SDS011;56843;52.020;5.670;2023-04-08T07:43:18;5.67;;;1.87;;
69623;SDS011;56843;52.020;5.670;2023-04-08T07:44:49;5.50;;;2.58;;
69623;SDS011;56843;52.020;5.670;2023-04-08T07:46:21;5.33;;;2.30;;
69623;SDS011;56843;52.020;5.670;2023-04-08T07:47:51;4.30;;;1.80;;
69623;SDS011;56843;52.020;5.670;2023-04-08T07:49:22;5.17;;;2.00;;
69623;SDS011;56843;52.020;5.670;2023-04-08T07:50:52;5.57;;;1.97;;
69623;SDS011;56843;52.020;5.670;2023-04-08T07:52:23;5.30;;;1.95;;
69623;SDS011;56843;52.020;5.670;2023-04-08T07:53:54;5.68;;;2.30;;
69623;SDS011;56843;52.020;5.670;2023-04-08T07:55:24;5.73;;;1.80;;
69623;SDS011;56843;52.020;5.670;2023-04-08T07:56:55;5.25;;;2.13;;
69623;SDS011;56843;52.020;5.670;2023-04-08T07:58:26;5.53;;;2.20;;
69623;SDS011;56843;52.020;5.670;2023-04-08T07:59:56;6.80;;;2.60;;
69623;SDS011;56843;52.020;5.670;2023-04-08T08:01:27;6.47;;;2.57;;
69623;SDS011;56843;52.020;5.670;2023-04-08T08:03:00;5.88;;;1.77;;
69623;SDS011;56843;52.020;5.670;2023-04-08T08:04:30;5.10;;;2.07;;
69623;SDS011;56843;52.020;5.670;2023-04-08T08:06:01;4.70;;;1.85;;
69623;SDS011;56843;52.020;5.670;2023-04-08T08:07:32;6.20;;;2.07;;
69623;SDS011;56843;52.020;5.670;2023-04-08T08:09:02;6.25;;;2.30;;
69623;SDS011;56843;52.020;5.670;2023-04-08T08:10:33;5.10;;;2.10;;
69623;SDS011;56843;52.020;5.670;2023-04-08T08:12:03;5.33;;;2.10;;
69623;SDS011;56843;52.020;5.670;2023-04-08T08:13:33;4.60;;;1.90;;
69623;SDS011;56843;52.020;5.670;2023-04-08T08:15:04;5.87;;;1.90;;
69623;SDS011;56843;52.020;5.670;2023-04-08T08:16:35;6.07;;;2.10;;
69623;SDS011;56843;52.020;5.670;2023-04-08T08:18:07;5.82;;;2.20;;
69623;SDS011;56843;52.020;5.670;2023-04-08T08:19:38;5.80;;;2.13;;
69623;SDS011;56843;52.020;5.670;2023-04-08T08:21:08;5.57;;;2.40;;
69623;SDS011;56843;52.020;5.670;2023-04-08T08:22:39;6.00;;;2.20;;
69623;SDS011;56843;52.020;5.670;2023-04-08T08:24:09;6.47;;;2.60;;
69623;SDS011;56843;52.020;5.670;2023-04-08T08:25:40;6.03;;;2.55;;
69623;SDS011;56843;52.020;5.670;2023-04-08T08:27:10;5.80;;;2.10;;
69623;SDS011;56843;52.020;5.670;2023-04-08T08:28:41;5.90;;;2.67;;
69623;SDS011;56843;52.020;5.670;2023-04-08T08:30:11;7.40;;;2.80;;
69623;SDS011;56843;52.020;5.670;2023-04-08T08:31:42;6.35;;;2.80;;
69623;SDS011;56843;52.020;5.670;2023-04-08T08:33:12;6.77;;;2.80;;
69623;SDS011;56843;52.020;5.670;2023-04-08T08:34:43;9.80;;;3.13;;
69623;SDS011;56843;52.020;5.670;2023-04-08T08:36:13;5.53;;;2.43;;
69623;SDS011;56843;52.020;5.670;2023-04-08T08:37:44;6.95;;;2.90;;
69623;SDS011;56843;52.020;5.670;2023-04-08T08:39:14;6.47;;;2.70;;
69623;SDS011;56843;52.020;5.670;2023-04-08T08:40:45;6.87;;;2.90;;
69623;SDS011;56843;52.020;5.670;2023-04-08T08:42:19;6.78;;;3.10;;
69623;SDS011;56843;52.020;5.670;2023-04-08T08:43:53;7.80;;;2.92;;
69623;SDS011;56843;52.020;5.670;2023-04-08T08:45:24;5.90;;;2.47;;
69623;SDS011;56843;52.020;5.670;2023-04-08T08:46:55;7.60;;;3.50;;
69623;SDS011;56843;52.020;5.670;2023-04-08T08:48:25;6.97;;;3.03;;
69623;SDS011;56843;52.020;5.670;2023-04-08T08:49:56;8.45;;;3.03;;
69623;SDS011;56843;52.020;5.670;2023-04-08T08:51:27;7.13;;;2.83;;
69623;SDS011;56843;52.020;5.670;2023-04-08T08:52:58;6.47;;;2.72;;
69623;SDS011;56843;52.020;5.670;2023-04-08T08:54:29;6.03;;;2.78;;
69623;SDS011;56843;52.020;5.670;2023-04-08T08:56:00;8.60;;;3.30;;
69623;SDS011;56843;52.020;5.670;2023-04-08T08:57:30;7.78;;;3.03;;
69623;SDS011;56843;52.020;5.670;2023-04-08T08:59:01;7.20;;;2.63;;
69623;SDS011;56843;52.020;5.670;2023-04-08T09:00:35;8.80;;;3.13;;
69623;SDS011;56843;52.020;5.670;2023-04-08T09:02:27;6.50;;;2.92;;
69623;SDS011;56843;52.020;5.670;2023-04-08T09:07:26;6.55;;;3.17;;
69623;SDS011;56843;52.020;5.670;2023-04-08T09:08:57;7.18;;;3.15;;
69623;SDS011;56843;52.020;5.670;2023-04-08T09:10:28;6.30;;;2.90;;
69623;SDS011;56843;52.020;5.670;2023-04-08T09:12:02;7.60;;;2.90;;
69623;SDS011;56843;52.020;5.670;2023-04-08T09:13:35;7.50;;;3.20;;
69623;SDS011;56843;52.020;5.670;2023-04-08T09:15:07;7.43;;;3.27;;
69623;SDS011;56843;52.020;5.670;2023-04-08T09:16:41;6.70;;;2.65;;
69623;SDS011;56843;52.020;5.670;2023-04-08T09:18:20;9.50;;;3.55;;